Time;durP1;ratioP1;P1;durP2;ratioP2;P2;SDS_P1;SDS_P2;PMS_P1;PMS_P2;Temp;Humidity;BMP_temperature;BMP_pressure;BME280_temperature;BME280_humidity;BME280_pressure;Samples;Min_cycle;Max_cycle;Signal;HPM_P1;HPM_P2
2021/12/29 00:01:26;;;;;;;108.25;41.22;;;2.80;99.90;;;;;;5092944;28;20609;-71
2021/12/29 00:03:58;;;;;;;99.05;39.50;;;2.80;99.90;;;;;;5092743;28;20200;-72
2021/12/29 00:06:25;;;;;;;87.47;40.15;;;2.80;99.90;;;;;;5092723;28;20177;-69
2021/12/29 00:08:55;;;;;;;91.68;35.92;;;2.80;99.90;;;;;;5092615;28;20742;-68
2021/12/29 00:11:27;;;;;;;88.93;37.83;;;2.80;99.90;;;;;;5092783;28;20586;-70
2021/12/29 00:13:56;;;;;;;96.45;38.25;;;2.80;99.90;;;;;;5092428;28;20200;-70
2021/12/29 00:16:24;;;;;;;95.70;39.03;;;2.80;99.90;;;;;;5092289;28;20187;-68
2021/12/29 00:18:57;;;;;;;113.43;40.95;;;2.80;99.90;;;;;;5091819;28;20659;-71
2021/12/29 00:21:26;;;;;;;113.93;38.65;;;2.80;99.90;;;;;;5092548;28;20180;-68
2021/12/29 00:23:59;;;;;;;92.38;38.67;;;2.80;99.90;;;;;;5092524;28;20205;-68
2021/12/29 00:26:30;;;;;;;102.57;39.90;;;2.80;99.90;;;;;;5092799;28;20176;-69
2021/12/29 00:28:59;;;;;;;95.43;38.28;;;2.80;99.90;;;;;;5092460;28;20196;-70
2021/12/29 00:31:28;;;;;;;87.28;37.63;;;2.80;99.90;;;;;;5091949;28;20676;-68
2021/12/29 00:33:55;;;;;;;115.78;37.65;;;2.80;99.90;;;;;;5092310;28;20197;-69
2021/12/29 00:36:25;;;;;;;94.85;36.13;;;2.80;99.90;;;;;;5092337;28;20176;-68
2021/12/29 00:38:53;;;;;;;85.60;36.83;;;2.80;99.90;;;;;;5092488;28;20588;-68
2021/12/29 00:41:21;;;;;;;101.18;37.70;;;2.80;99.90;;;;;;5092554;28;20671;-69
2021/12/29 00:44:01;;;;;;;216.55;43.35;;;2.80;99.90;;;;;;5092260;28;20242;-70
2021/12/29 00:46:39;;;;;;;162.32;44.60;;;2.80;99.90;;;;;;5092121;28;20179;-68
2021/12/29 00:49:10;;;;;;;176.05;46.55;;;2.80;99.90;;;;;;5091890;28;20691;-70
2021/12/29 00:51:40;;;;;;;129.23;39.72;;;2.80;99.90;;;;;;5092180;28;20181;-70
2021/12/29 00:54:08;;;;;;;127.18;41.15;;;2.80;99.90;;;;;;5093629;28;20337;-70
2021/12/29 00:56:34;;;;;;;97.13;37.28;;;2.80;99.90;;;;;;5092031;28;20264;-70
2021/12/29 00:59:02;;;;;;;102.23;40.10;;;2.80;99.90;;;;;;5092225;28;20326;-70
2021/12/29 01:01:31;;;;;;;159.25;38.17;;;2.80;99.90;;;;;;5092188;28;20944;-68
2021/12/29 01:03:58;;;;;;;95.47;35.92;;;2.80;99.90;;;;;;5092179;28;20285;-70
2021/12/29 01:06:30;;;;;;;94.88;39.63;;;2.80;99.90;;;;;;5091890;28;20184;-70
2021/12/29 01:08:58;;;;;;;107.05;42.03;;;2.80;99.90;;;;;;5092455;28;20209;-70
2021/12/29 01:11:32;;;;;;;140.35;46.10;;;2.80;99.90;;;;;;5093676;28;20698;-69
2021/12/29 01:14:00;;;;;;;143.75;46.63;;;2.80;99.90;;;;;;5093462;28;20193;-70
2021/12/29 01:19:15;;;;;;;107.22;44.03;;;2.90;99.90;;;;;;5093568;28;20204;-68
2021/12/29 01:21:45;;;;;;;119.30;43.40;;;2.90;99.90;;;;;;5092034;28;20241;-70
2021/12/29 01:24:13;;;;;;;115.45;44.00;;;2.90;99.90;;;;;;5092163;28;20196;-70
2021/12/29 01:26:49;;;;;;;116.65;41.78;;;2.90;99.90;;;;;;5095397;28;20271;-68
2021/12/29 01:29:20;;;;;;;109.90;43.85;;;2.90;99.90;;;;;;5094847;28;20236;-69
2021/12/29 01:31:48;;;;;;;140.60;44.67;;;2.90;99.90;;;;;;5095695;28;20649;-70
2021/12/29 01:34:15;;;;;;;136.30;46.53;;;2.90;99.90;;;;;;5095623;28;20242;-68
2021/12/29 01:36:44;;;;;;;114.78;41.65;;;2.90;99.90;;;;;;5095405;28;20551;-68
2021/12/29 01:39:14;;;;;;;89.68;37.65;;;2.90;99.90;;;;;;5095465;28;20196;-71
2021/12/29 01:41:41;;;;;;;90.90;36.15;;;2.90;99.90;;;;;;5095219;28;20187;-70
2021/12/29 01:44:27;;;;;;;86.63;34.80;;;2.90;99.90;;;;;;5095188;28;20196;-70
2021/12/29 01:46:56;;;;;;;89.18;36.10;;;2.90;99.90;;;;;;5095377;28;20189;-70
2021/12/29 01:49:24;;;;;;;92.82;35.38;;;2.90;99.90;;;;;;5095246;28;20173;-68
2021/12/29 01:52:20;;;;;;;92.13;35.00;;;2.90;99.90;;;;;;5095377;28;20541;-70
2021/12/29 01:54:41;;;;;;;95.85;37.10;;;2.90;99.90;;;;;;5095646;28;20267;-71
2021/12/29 01:57:14;;;;;;;95.82;37.25;;;2.90;99.90;;;;;;5095000;28;20219;-70
2021/12/29 01:59:44;;;;;;;89.47;37.55;;;2.90;99.90;;;;;;5095178;28;20206;-68
2021/12/29 02:02:14;;;;;;;100.13;36.15;;;2.90;99.90;;;;;;5095333;28;20212;-72
2021/12/29 02:04:46;;;;;;;83.35;35.17;;;2.90;99.90;;;;;;5094765;28;20625;-68
2021/12/29 02:07:14;;;;;;;82.97;35.47;;;2.90;99.90;;;;;;5094791;28;20192;-70
2021/12/29 02:09:41;;;;;;;92.82;33.83;;;2.90;99.90;;;;;;5094686;28;20577;-70
2021/12/29 02:12:08;;;;;;;82.63;35.97;;;2.90;99.90;;;;;;5094874;28;20193;-70
2021/12/29 02:15:07;;;;;;;82.90;35.00;;;2.90;99.90;;;;;;5095974;28;20164;-68
2021/12/29 02:17:38;;;;;;;98.95;37.10;;;2.90;99.90;;;;;;5089782;28;20254;-69
2021/12/29 02:20:14;;;;;;;142.82;52.08;;;2.90;99.90;;;;;;5093900;28;20267;-70
2021/12/29 02:22:51;;;;;;;145.80;51.35;;;2.90;99.90;;;;;;5094438;28;20236;-68
2021/12/29 02:27:46;;;;;;;145.95;49.90;;;2.90;99.90;;;;;;5096008;28;20201;-68
2021/12/29 02:30:18;;;;;;;145.73;47.10;;;2.90;99.90;;;;;;5094619;28;20183;-70
2021/12/29 02:32:49;;;;;;;122.28;44.60;;;2.90;99.90;;;;;;5094459;28;20201;-69
2021/12/29 02:35:19;;;;;;;114.82;43.28;;;2.90;99.90;;;;;;5094680;28;20310;-68
2021/12/29 02:37:48;;;;;;;106.93;40.95;;;2.90;99.90;;;;;;5094291;28;20231;-69
2021/12/29 02:40:23;;;;;;;128.35;45.35;;;2.90;99.90;;;;;;5094205;28;20177;-70
2021/12/29 02:43:02;;;;;;;97.38;40.58;;;2.80;99.90;;;;;;5095986;28;20204;-68
2021/12/29 02:45:34;;;;;;;104.80;42.70;;;2.80;99.90;;;;;;5095836;28;20269;-68
2021/12/29 02:48:09;;;;;;;96.55;41.65;;;2.80;99.90;;;;;;5094429;28;20634;-70
2021/12/29 02:50:37;;;;;;;102.35;41.95;;;2.80;99.90;;;;;;5094105;28;20566;-68
2021/12/29 02:53:09;;;;;;;109.70;42.88;;;2.70;99.90;;;;;;5093912;28;20219;-69
2021/12/29 02:55:36;;;;;;;97.43;38.67;;;2.70;99.90;;;;;;5094558;28;20259;-70
2021/12/29 02:58:04;;;;;;;89.05;37.22;;;2.70;99.90;;;;;;5094212;28;20239;-69
2021/12/29 03:00:32;;;;;;;86.68;35.50;;;2.60;99.90;;;;;;5094207;28;20728;-68
2021/12/29 03:03:27;;;;;;;72.00;33.47;;;2.60;99.90;;;;;;5094062;28;20569;-68
2021/12/29 03:05:56;;;;;;;67.95;31.08;;;2.60;99.90;;;;;;5090235;28;20184;-70
2021/12/29 03:08:28;;;;;;;77.13;31.55;;;2.60;99.90;;;;;;5093496;28;20688;-68
2021/12/29 03:10:58;;;;;;;74.65;29.02;;;2.60;99.90;;;;;;5093836;28;20652;-70
2021/12/29 03:13:31;;;;;;;74.38;30.77;;;2.60;99.90;;;;;;5093645;28;20692;-70
2021/12/29 03:15:58;;;;;;;71.00;29.42;;;2.60;99.90;;;;;;5095081;28;20167;-68
2021/12/29 03:18:28;;;;;;;76.68;32.78;;;2.60;99.90;;;;;;5093253;28;20236;-68
2021/12/29 03:20:59;;;;;;;91.93;30.92;;;2.60;99.90;;;;;;5093458;28;20626;-70
2021/12/29 03:23:28;;;;;;;90.88;32.10;;;2.50;99.90;;;;;;5093273;28;20207;-70
2021/12/29 03:26:09;;;;;;;78.55;29.60;;;2.50;99.90;;;;;;5092786;28;20630;-70
2021/12/29 03:28:39;;;;;;;64.47;28.83;;;2.50;99.90;;;;;;5092155;28;20201;-68
2021/12/29 03:31:14;;;;;;;62.53;27.63;;;2.50;99.90;;;;;;5093036;28;20229;-70
2021/12/29 03:33:43;;;;;;;76.85;32.40;;;2.50;99.90;;;;;;5093219;28;20207;-70
2021/12/29 03:36:12;;;;;;;62.15;29.27;;;2.50;99.90;;;;;;5093203;28;20577;-69
2021/12/29 03:38:40;;;;;;;58.25;25.55;;;2.50;99.90;;;;;;5093068;28;20213;-70
2021/12/29 03:41:11;;;;;;;67.03;26.77;;;2.60;99.90;;;;;;5093215;28;20254;-69
2021/12/29 03:43:38;;;;;;;64.90;28.40;;;2.60;99.90;;;;;;5092707;28;20193;-70
2021/12/29 03:46:12;;;;;;;56.30;27.73;;;2.60;99.90;;;;;;5092997;28;20629;-70
2021/12/29 03:48:42;;;;;;;61.42;26.73;;;2.60;99.90;;;;;;5092632;28;20199;-68
2021/12/29 03:51:12;;;;;;;58.80;26.67;;;2.70;99.90;;;;;;5092957;28;20179;-68
2021/12/29 03:53:40;;;;;;;52.65;24.50;;;2.60;99.90;;;;;;5093171;28;20200;-70
2021/12/29 03:56:09;;;;;;;61.28;26.45;;;2.70;99.90;;;;;;5092710;28;20173;-70
2021/12/29 03:58:37;;;;;;;64.72;26.70;;;2.70;99.90;;;;;;5092726;28;20243;-70
2021/12/29 04:01:12;;;;;;;59.80;25.17;;;2.80;99.90;;;;;;5092487;28;20185;-70
2021/12/29 04:03:44;;;;;;;59.70;24.90;;;2.90;99.90;;;;;;5092597;28;20188;-70
2021/12/29 04:06:11;;;;;;;76.85;29.25;;;2.90;99.90;;;;;;5092745;28;20204;-69
2021/12/29 04:08:43;;;;;;;56.70;23.88;;;2.90;99.90;;;;;;5092655;28;20202;-70
2021/12/29 04:11:22;;;;;;;54.50;25.98;;;2.90;99.90;;;;;;5092714;28;20176;-69
2021/12/29 04:14:00;;;;;;;64.13;26.13;;;2.90;99.90;;;;;;5092488;28;20196;-69
2021/12/29 04:16:36;;;;;;;63.15;27.20;;;2.90;99.90;;;;;;5092603;28;20228;-70
2021/12/29 04:19:14;;;;;;;60.97;24.80;;;3.00;99.90;;;;;;5092531;28;20247;-69
2021/12/29 04:21:47;;;;;;;51.95;23.73;;;3.00;99.90;;;;;;5092341;28;20188;-69
2021/12/29 04:24:15;;;;;;;49.30;23.70;;;3.00;99.90;;;;;;5092621;28;20203;-70
2021/12/29 04:26:45;;;;;;;51.85;25.15;;;3.00;99.90;;;;;;5092350;28;20190;-70
2021/12/29 04:29:15;;;;;;;58.47;26.27;;;3.00;99.90;;;;;;5092416;28;20610;-70
2021/12/29 04:31:55;;;;;;;48.90;24.65;;;3.00;99.90;;;;;;5092660;28;20215;-70
2021/12/29 04:34:29;;;;;;;53.22;24.63;;;3.00;99.90;;;;;;5092710;28;20637;-70
2021/12/29 04:36:57;;;;;;;57.00;25.08;;;3.00;99.90;;;;;;5092086;28;20180;-68
2021/12/29 04:39:29;;;;;;;50.75;25.95;;;3.00;99.90;;;;;;5092445;28;20306;-70
2021/12/29 04:41:56;;;;;;;53.65;27.05;;;3.00;99.90;;;;;;5092470;28;20286;-69
2021/12/29 04:44:27;;;;;;;49.38;25.90;;;3.00;99.90;;;;;;5092307;28;20260;-70
2021/12/29 04:46:59;;;;;;;49.53;24.63;;;3.00;99.90;;;;;;5092138;28;20649;-68
2021/12/29 04:49:41;;;;;;;50.05;24.98;;;2.90;99.90;;;;;;5092268;28;20177;-69
2021/12/29 04:52:11;;;;;;;51.25;25.33;;;3.00;99.90;;;;;;5092624;28;20545;-69
2021/12/29 04:54:49;;;;;;;45.55;24.45;;;3.00;99.90;;;;;;5092245;28;20180;-70
2021/12/29 04:57:19;;;;;;;55.40;28.08;;;3.00;99.90;;;;;;5092217;28;20704;-67
2021/12/29 04:59:50;;;;;;;56.92;28.15;;;3.00;99.90;;;;;;5093378;28;20176;-68
2021/12/29 05:02:25;;;;;;;56.30;26.38;;;3.00;99.90;;;;;;5095834;28;20224;-69
2021/12/29 05:05:00;;;;;;;47.72;23.05;;;3.00;99.90;;;;;;5096636;28;20172;-69
2021/12/29 05:10:13;;;;;;;50.50;26.17;;;3.00;99.90;;;;;;5097748;28;20248;-68
2021/12/29 05:12:48;;;;;;;51.15;25.55;;;3.00;99.90;;;;;;5096084;28;20730;-68
2021/12/29 05:15:17;;;;;;;47.08;25.02;;;3.00;99.90;;;;;;5096106;28;20180;-69
2021/12/29 05:17:49;;;;;;;41.70;24.35;;;3.10;99.90;;;;;;5095621;28;20275;-69
2021/12/29 05:20:16;;;;;;;49.47;27.63;;;3.00;99.90;;;;;;5095945;28;20173;-69
2021/12/29 05:22:47;;;;;;;51.95;26.60;;;3.00;99.90;;;;;;5097029;28;20712;-68
2021/12/29 05:25:19;;;;;;;51.75;25.48;;;3.10;99.90;;;;;;5095858;28;20183;-68
2021/12/29 05:27:47;;;;;;;47.35;25.30;;;3.00;99.90;;;;;;5095922;28;20204;-68
2021/12/29 05:30:14;;;;;;;43.83;24.67;;;3.00;99.90;;;;;;5095697;28;20187;-67
2021/12/29 05:32:44;;;;;;;47.63;25.98;;;3.00;99.90;;;;;;5095769;28;20235;-68
2021/12/29 05:35:12;;;;;;;53.10;28.85;;;3.00;99.90;;;;;;5095922;28;20276;-69
2021/12/29 05:37:41;;;;;;;56.78;27.92;;;3.00;99.90;;;;;;5095407;28;20212;-68
2021/12/29 05:40:09;;;;;;;45.55;24.45;;;3.10;99.90;;;;;;5095368;28;20184;-67
2021/12/29 05:42:38;;;;;;;50.53;26.25;;;3.00;99.90;;;;;;5095409;28;20200;-69
2021/12/29 05:45:08;;;;;;;45.10;26.75;;;3.00;99.90;;;;;;5095308;28;20199;-69
2021/12/29 05:47:40;;;;;;;48.83;26.60;;;3.00;99.90;;;;;;5095271;28;20201;-67
2021/12/29 05:50:13;;;;;;;44.90;25.85;;;3.00;99.90;;;;;;5095204;28;20177;-67
2021/12/29 05:52:39;;;;;;;51.92;25.77;;;3.00;99.90;;;;;;5095203;28;20211;-68
2021/12/29 05:55:12;;;;;;;57.88;29.02;;;3.00;99.90;;;;;;5095153;28;20259;-69
2021/12/29 05:57:45;;;;;;;71.30;34.10;;;3.00;99.90;;;;;;5094865;28;20224;-69
2021/12/29 06:00:17;;;;;;;61.75;31.13;;;3.00;99.90;;;;;;5094726;28;20314;-69
2021/12/29 06:02:45;;;;;;;63.53;31.77;;;3.00;99.90;;;;;;5094516;28;20222;-68
2021/12/29 06:05:13;;;;;;;51.10;28.92;;;3.00;99.90;;;;;;5094928;28;20237;-69
2021/12/29 06:07:41;;;;;;;70.80;31.60;;;3.00;99.90;;;;;;5094873;28;20244;-68
2021/12/29 06:10:08;;;;;;;63.58;34.42;;;3.00;99.90;;;;;;5094794;28;20183;-68
2021/12/29 06:12:35;;;;;;;59.97;30.05;;;3.00;99.90;;;;;;5096239;28;20200;-69
2021/12/29 06:15:14;;;;;;;52.53;28.95;;;3.00;99.90;;;;;;5094476;28;20188;-69
2021/12/29 06:17:41;;;;;;;51.55;29.23;;;3.00;99.90;;;;;;5094094;28;20672;-69
2021/12/29 06:20:11;;;;;;;61.83;30.67;;;3.00;99.90;;;;;;5094640;28;20568;-68
2021/12/29 06:22:38;;;;;;;49.35;27.05;;;3.00;99.90;;;;;;5094767;28;20227;-68
2021/12/29 06:25:09;;;;;;;45.38;25.60;;;3.00;99.90;;;;;;5094954;28;20206;-69
2021/12/29 06:27:37;;;;;;;59.03;29.38;;;3.10;99.90;;;;;;5094516;28;20200;-68
2021/12/29 06:30:10;;;;;;;55.58;29.45;;;3.10;99.90;;;;;;5094680;28;20253;-69
2021/12/29 06:32:37;;;;;;;52.33;28.40;;;3.10;99.90;;;;;;5094601;28;20204;-67
2021/12/29 06:35:05;;;;;;;43.88;26.10;;;3.00;99.90;;;;;;5094152;28;20633;-69
2021/12/29 06:37:32;;;;;;;54.03;28.48;;;3.00;99.90;;;;;;5094295;28;20328;-68
2021/12/29 06:40:02;;;;;;;53.53;26.80;;;3.00;99.90;;;;;;5094378;28;20629;-68
2021/12/29 06:42:35;;;;;;;48.58;26.45;;;3.00;99.90;;;;;;5094444;28;20298;-68
2021/12/29 06:45:05;;;;;;;48.92;28.08;;;3.10;99.90;;;;;;5094272;28;20180;-69
2021/12/29 06:47:36;;;;;;;49.85;28.17;;;3.00;99.90;;;;;;5094046;28;20260;-69
2021/12/29 06:50:06;;;;;;;130.85;60.03;;;3.00;99.90;;;;;;5094119;28;20271;-69
2021/12/29 06:52:35;;;;;;;90.50;45.17;;;3.10;99.90;;;;;;5094146;28;20200;-69
2021/12/29 06:55:03;;;;;;;86.78;44.08;;;3.10;99.90;;;;;;5093742;28;20181;-69
2021/12/29 06:57:32;;;;;;;75.35;39.97;;;3.10;99.90;;;;;;5093951;28;20708;-68
2021/12/29 07:00:00;;;;;;;77.65;37.05;;;3.10;99.90;;;;;;5095125;28;20574;-68
2021/12/29 07:02:26;;;;;;;78.38;38.08;;;3.10;99.90;;;;;;5093830;28;20211;-70
2021/12/29 07:04:53;;;;;;;73.88;36.35;;;3.10;99.90;;;;;;5093872;28;20187;-68
2021/12/29 07:07:20;;;;;;;77.05;40.85;;;3.10;99.90;;;;;;5093530;28;20208;-70
2021/12/29 07:09:50;;;;;;;67.88;37.22;;;3.10;99.90;;;;;;5093509;28;20184;-69
2021/12/29 07:12:20;;;;;;;76.38;35.00;;;3.10;99.90;;;;;;5095333;28;20211;-68
2021/12/29 07:14:48;;;;;;;58.22;31.67;;;3.10;99.90;;;;;;5093542;28;20565;-68
2021/12/29 07:17:15;;;;;;;58.85;31.55;;;3.10;99.90;;;;;;5093057;28;20654;-69
2021/12/29 07:19:41;;;;;;;64.70;30.30;;;3.20;99.90;;;;;;5093503;28;20168;-69
2021/12/29 07:22:12;;;;;;;68.22;34.33;;;3.20;99.90;;;;;;5092645;28;20189;-68
2021/12/29 07:24:42;;;;;;;83.28;36.15;;;3.20;99.90;;;;;;5093535;28;20485;-68
2021/12/29 07:27:14;;;;;;;70.68;34.13;;;3.20;99.90;;;;;;5093394;28;20180;-68
2021/12/29 07:29:48;;;;;;;76.20;32.30;;;3.20;99.90;;;;;;5092668;28;20180;-68
2021/12/29 07:32:15;;;;;;;72.50;33.13;;;3.30;99.90;;;;;;5093325;28;20215;-68
2021/12/29 07:34:43;;;;;;;77.15;31.08;;;3.30;99.90;;;;;;5093207;28;20207;-69
2021/12/29 07:37:12;;;;;;;84.07;33.35;;;3.30;99.90;;;;;;5092895;28;20669;-68
2021/12/29 07:39:44;;;;;;;82.43;32.45;;;3.30;99.90;;;;;;5092307;28;20183;-69
2021/12/29 07:42:11;;;;;;;79.85;30.20;;;3.30;99.90;;;;;;5092479;28;20216;-69
2021/12/29 07:44:40;;;;;;;78.05;32.05;;;3.20;99.90;;;;;;5092997;28;20259;-70
2021/12/29 07:47:07;;;;;;;77.75;36.50;;;3.30;99.90;;;;;;5092154;28;20189;-68
2021/12/29 07:49:48;;;;;;;92.32;42.53;;;3.30;99.90;;;;;;5092291;28;20188;-69
2021/12/29 07:52:21;;;;;;;88.35;32.00;;;3.30;99.90;;;;;;5092425;28;20230;-69
2021/12/29 07:54:50;;;;;;;70.10;29.05;;;3.30;99.90;;;;;;5092779;28;20184;-68
2021/12/29 07:57:17;;;;;;;87.60;30.92;;;3.30;99.90;;;;;;5092529;28;20312;-68
2021/12/29 07:59:47;;;;;;;63.92;27.98;;;3.30;99.90;;;;;;5092819;28;20176;-68
2021/12/29 08:02:17;;;;;;;74.05;31.48;;;3.30;99.90;;;;;;5092770;28;20181;-69
2021/12/29 08:04:47;;;;;;;66.82;28.25;;;3.30;99.90;;;;;;5092998;28;20222;-69
2021/12/29 08:07:19;;;;;;;74.15;31.65;;;3.30;99.90;;;;;;5090887;28;20212;-69
2021/12/29 08:09:48;;;;;;;86.85;36.33;;;3.30;99.90;;;;;;5090757;28;20177;-68
2021/12/29 08:12:16;;;;;;;125.78;52.63;;;3.30;99.90;;;;;;5089986;28;20204;-68
2021/12/29 08:14:46;;;;;;;81.93;31.35;;;3.30;99.90;;;;;;5091669;28;20192;-69
2021/12/29 08:17:15;;;;;;;94.43;44.70;;;3.30;99.90;;;;;;5090979;28;20228;-68
2021/12/29 08:19:45;;;;;;;64.70;30.00;;;3.30;99.90;;;;;;5092506;28;20168;-70
2021/12/29 08:22:12;;;;;;;66.32;28.02;;;3.30;99.90;;;;;;5090231;28;20196;-69
2021/12/29 08:24:44;;;;;;;50.80;27.40;;;3.30;99.90;;;;;;5090164;28;20181;-69
2021/12/29 08:27:11;;;;;;;59.03;26.23;;;3.30;99.90;;;;;;5089787;28;20275;-69
2021/12/29 08:29:45;;;;;;;63.33;29.98;;;3.30;99.90;;;;;;5088475;28;20255;-69
2021/12/29 08:32:13;;;;;;;67.93;26.80;;;3.30;99.90;;;;;;5086688;28;20195;-68
2021/12/29 08:34:44;;;;;;;62.50;29.33;;;3.30;99.90;;;;;;5090998;28;20641;-69
2021/12/29 08:37:13;;;;;;;63.22;29.77;;;3.30;99.90;;;;;;5093428;28;20212;-68
2021/12/29 08:39:45;;;;;;;69.22;32.22;;;3.30;99.90;;;;;;5094249;28;20183;-69
2021/12/29 08:42:15;;;;;;;67.22;27.98;;;3.30;99.90;;;;;;5094476;28;20261;-68
2021/12/29 08:44:43;;;;;;;63.35;31.02;;;3.30;99.90;;;;;;5095383;28;20572;-69
2021/12/29 08:47:19;;;;;;;74.75;31.52;;;3.30;99.90;;;;;;5096332;28;20188;-69
2021/12/29 08:50:01;;;;;;;81.63;34.20;;;3.30;99.90;;;;;;5096094;28;20541;-68
2021/12/29 08:52:30;;;;;;;70.70;29.55;;;3.30;99.90;;;;;;5096041;28;20211;-67
2021/12/29 08:54:57;;;;;;;59.42;28.30;;;3.30;99.90;;;;;;5096220;28;20641;-69
2021/12/29 08:57:25;;;;;;;63.42;29.58;;;3.30;99.90;;;;;;5096262;28;20231;-69
2021/12/29 08:59:51;;;;;;;67.10;28.23;;;3.30;99.90;;;;;;5095827;28;20172;-68
2021/12/29 09:02:20;;;;;;;61.88;26.30;;;3.30;99.90;;;;;;5095447;28;20628;-69
2021/12/29 09:04:52;;;;;;;51.13;26.10;;;3.30;99.90;;;;;;5094025;28;20169;-68
2021/12/29 09:07:19;;;;;;;56.80;28.02;;;3.30;99.90;;;;;;5093619;28;20192;-70
2021/12/29 09:09:48;;;;;;;55.47;26.23;;;3.30;99.90;;;;;;5094977;28;20172;-69
2021/12/29 09:12:26;;;;;;;56.00;26.90;;;3.30;99.90;;;;;;5093133;28;20193;-70
2021/12/29 09:14:56;;;;;;;92.95;38.72;;;3.30;99.90;;;;;;5092870;28;20226;-67
2021/12/29 09:17:23;;;;;;;82.82;39.60;;;3.30;99.90;;;;;;5092080;28;20660;-69
2021/12/29 09:20:03;;;;;;;59.10;27.77;;;3.30;99.90;;;;;;5092987;28;20173;-69
2021/12/29 09:22:44;;;;;;;65.32;26.45;;;3.20;99.90;;;;;;5094245;28;20201;-68
2021/12/29 09:25:12;;;;;;;64.75;29.35;;;3.20;99.90;;;;;;5092712;28;20173;-69
2021/12/29 09:27:42;;;;;;;58.42;26.90;;;3.20;99.90;;;;;;5088096;28;20207;-69
2021/12/29 09:30:10;;;;;;;61.90;27.45;;;3.20;99.90;;;;;;5095686;28;20180;-69
2021/12/29 09:32:37;;;;;;;71.88;28.58;;;3.20;99.90;;;;;;5095769;28;20250;-69
2021/12/29 09:35:07;;;;;;;71.22;31.45;;;3.20;99.90;;;;;;5095816;28;20191;-68
2021/12/29 09:37:34;;;;;;;67.72;31.42;;;3.20;99.90;;;;;;5095278;28;20223;-69
2021/12/29 09:40:01;;;;;;;55.50;26.30;;;3.20;99.90;;;;;;5095157;28;20198;-69
2021/12/29 09:42:28;;;;;;;63.05;26.35;;;3.20;99.90;;;;;;5095482;28;20609;-70
2021/12/29 09:45:01;;;;;;;62.13;27.23;;;3.20;99.90;;;;;;5094865;28;20192;-70
2021/12/29 09:47:29;;;;;;;65.47;26.45;;;3.20;99.90;;;;;;5094451;28;20249;-68
2021/12/29 09:50:04;;;;;;;57.65;29.00;;;3.20;99.90;;;;;;5094993;28;20253;-69
2021/12/29 09:52:33;;;;;;;66.30;26.80;;;3.20;99.90;;;;;;5093788;28;20199;-68
2021/12/29 09:55:04;;;;;;;68.75;27.60;;;3.20;99.90;;;;;;5074940;28;20655;-67
2021/12/29 09:57:46;;;;;;;64.07;26.40;;;3.20;99.90;;;;;;5074371;28;20213;-67
2021/12/29 10:00:23;;;;;;;64.50;25.63;;;3.20;99.90;;;;;;5074942;28;20180;-69
2021/12/29 10:02:57;;;;;;;58.95;28.13;;;3.20;99.90;;;;;;5074797;28;20200;-69
2021/12/29 10:05:31;;;;;;;60.85;26.83;;;3.20;99.90;;;;;;5074866;28;20217;-69
2021/12/29 10:08:06;;;;;;;60.05;27.35;;;3.20;99.90;;;;;;5075038;28;20201;-69
2021/12/29 10:10:37;;;;;;;66.00;28.20;;;3.20;99.90;;;;;;5093069;28;20186;-68
2021/12/29 10:13:06;;;;;;;62.60;26.05;;;3.20;99.90;;;;;;5094750;28;20204;-69
2021/12/29 10:15:45;;;;;;;56.88;26.60;;;3.20;99.90;;;;;;5094840;28;20172;-69
2021/12/29 10:18:17;;;;;;;73.55;27.02;;;3.20;99.90;;;;;;5093582;28;20255;-69
2021/12/29 10:21:13;;;;;;;72.90;26.92;;;3.20;99.90;;;;;;5094577;28;20176;-68
2021/12/29 10:23:42;;;;;;;62.70;27.13;;;3.20;99.90;;;;;;5094445;28;20207;-69
2021/12/29 10:26:21;;;;;;;64.30;28.10;;;3.20;99.90;;;;;;5094696;28;20172;-68
2021/12/29 10:29:00;;;;;;;58.17;27.13;;;3.30;99.90;;;;;;5094073;28;20258;-68
2021/12/29 10:31:39;;;;;;;62.35;26.80;;;3.20;99.90;;;;;;5095979;28;20173;-68
2021/12/29 10:34:20;;;;;;;53.45;25.27;;;3.30;99.90;;;;;;5094300;28;20330;-68
2021/12/29 10:36:57;;;;;;;57.13;26.65;;;3.30;99.90;;;;;;5092823;28;20192;-69
2021/12/29 10:39:38;;;;;;;57.95;27.58;;;3.30;99.90;;;;;;5093191;28;20184;-69
2021/12/29 10:42:14;;;;;;;57.15;25.73;;;3.30;99.90;;;;;;5094417;28;20716;-68
2021/12/29 10:44:54;;;;;;;50.08;24.60;;;3.30;99.90;;;;;;5093553;28;20180;-70
2021/12/29 10:47:28;;;;;;;47.28;24.52;;;3.30;99.90;;;;;;5093088;28;20699;-68
2021/12/29 10:50:06;;;;;;;56.85;24.95;;;3.30;99.90;;;;;;5093168;28;20210;-72
2021/12/29 10:52:39;;;;;;;42.35;22.65;;;3.30;99.90;;;;;;5094122;28;20373;-71
2021/12/29 10:55:16;;;;;;;47.40;24.77;;;3.30;99.90;;;;;;5093796;28;20708;-70
2021/12/29 10:57:47;;;;;;;51.35;24.60;;;3.30;99.90;;;;;;5092144;28;20212;-72
2021/12/29 11:00:18;;;;;;;48.67;25.65;;;3.30;99.90;;;;;;5093077;28;20232;-72
2021/12/29 11:02:48;;;;;;;52.33;26.05;;;3.40;99.90;;;;;;5093652;28;20196;-70
2021/12/29 11:05:16;;;;;;;48.28;24.23;;;3.40;99.90;;;;;;5093539;28;20172;-70
2021/12/29 11:07:50;;;;;;;47.00;23.75;;;3.40;99.90;;;;;;5092765;28;20564;-70
2021/12/29 11:10:22;;;;;;;52.47;28.05;;;3.50;99.90;;;;;;5093820;28;20491;-70
2021/12/29 11:12:56;;;;;;;51.20;26.13;;;3.50;99.90;;;;;;5091964;28;20542;-70
2021/12/29 11:15:27;;;;;;;57.05;26.50;;;3.50;99.90;;;;;;5091172;28;20610;-68
2021/12/29 11:18:04;;;;;;;41.20;25.70;;;3.50;99.90;;;;;;5089187;28;20716;-68
2021/12/29 11:20:32;;;;;;;45.25;24.35;;;3.50;99.90;;;;;;5088933;28;20184;-70
2021/12/29 11:23:19;;;;;;;45.90;23.13;;;3.60;99.90;;;;;;5089512;28;20200;-67
2021/12/29 11:25:54;;;;;;;41.58;23.00;;;3.60;99.90;;;;;;5089586;28;20181;-68
2021/12/29 11:28:34;;;;;;;50.88;24.40;;;3.60;99.90;;;;;;5091822;28;20250;-68
2021/12/29 11:31:06;;;;;;;44.88;24.73;;;3.70;99.90;;;;;;5090050;28;20195;-69
2021/12/29 11:33:38;;;;;;;44.90;22.73;;;3.70;99.90;;;;;;5083244;28;20215;-68
2021/12/29 11:36:06;;;;;;;38.88;22.27;;;3.70;99.90;;;;;;5089888;28;20569;-69
2021/12/29 11:38:43;;;;;;;43.95;26.23;;;3.80;99.90;;;;;;5090258;28;20715;-69
2021/12/29 11:41:15;;;;;;;37.05;21.70;;;3.80;99.90;;;;;;5092737;28;20172;-68
2021/12/29 11:43:43;;;;;;;36.90;21.05;;;3.90;99.90;;;;;;5093169;28;20713;-69
2021/12/29 11:46:11;;;;;;;37.40;20.80;;;4.00;99.90;;;;;;5092662;28;20180;-68
2021/12/29 11:48:38;;;;;;;37.65;22.17;;;4.00;99.90;;;;;;5092928;28;20203;-72
2021/12/29 11:51:15;;;;;;;36.55;20.63;;;4.10;99.90;;;;;;5092450;28;20609;-71
2021/12/29 11:54:03;;;;;;;34.58;20.65;;;4.10;99.90;;;;;;5093123;28;20254;-72
2021/12/29 11:56:40;;;;;;;39.22;22.20;;;4.20;99.90;;;;;;5090684;28;20187;-70
2021/12/29 11:59:09;;;;;;;32.40;22.00;;;4.20;99.90;;;;;;5091842;28;20250;-70
2021/12/29 12:01:38;;;;;;;33.67;20.60;;;4.30;99.90;;;;;;5087456;28;20247;-71
2021/12/29 12:04:11;;;;;;;33.53;21.50;;;4.30;99.90;;;;;;5070795;28;20204;-71
2021/12/29 12:06:46;;;;;;;36.47;20.27;;;4.40;99.90;;;;;;5084502;28;20668;-72
2021/12/29 12:09:25;;;;;;;32.65;20.65;;;4.40;99.90;;;;;;5089533;28;20196;-72
2021/12/29 12:12:00;;;;;;;36.72;22.65;;;4.40;99.90;;;;;;5091146;28;20556;-70
2021/12/29 12:14:44;;;;;;;46.10;28.92;;;4.40;99.90;;;;;;5092731;28;20180;-70
2021/12/29 12:17:19;;;;;;;42.88;23.83;;;4.40;99.90;;;;;;5091396;28;20250;-69
2021/12/29 12:20:28;;;;;;;79.50;47.17;;;4.40;99.90;;;;;;5093082;28;20187;-68
2021/12/29 12:22:57;;;;;;;138.40;84.38;;;4.40;99.90;;;;;;5092758;28;20231;-70
2021/12/29 12:25:30;;;;;;;63.30;39.10;;;4.40;99.90;;;;;;5092222;28;20180;-70
2021/12/29 12:28:02;;;;;;;50.33;28.67;;;4.40;99.90;;;;;;5091243;28;20978;-69
2021/12/29 12:30:46;;;;;;;46.53;27.10;;;4.40;99.90;;;;;;5092861;28;20672;-70
2021/12/29 12:33:20;;;;;;;41.17;25.73;;;4.40;99.90;;;;;;5092435;28;20334;-69
2021/12/29 12:35:51;;;;;;;37.55;25.25;;;4.40;99.90;;;;;;5090559;28;20275;-69
2021/12/29 12:38:21;;;;;;;38.42;23.02;;;4.40;99.90;;;;;;5092145;28;20235;-67
2021/12/29 12:41:00;;;;;;;38.72;24.70;;;4.40;99.90;;;;;;5091529;28;20322;-68
2021/12/29 12:43:28;;;;;;;40.47;24.67;;;4.40;99.90;;;;;;5090119;28;20200;-67
2021/12/29 12:46:01;;;;;;;39.28;27.00;;;4.40;99.90;;;;;;5090411;28;20183;-69
2021/12/29 12:48:30;;;;;;;49.80;29.48;;;4.30;99.90;;;;;;5089637;28;20201;-69
2021/12/29 12:51:14;;;;;;;42.25;25.02;;;4.30;99.90;;;;;;5088113;28;20310;-69
2021/12/29 12:53:41;;;;;;;45.75;27.33;;;4.30;99.90;;;;;;5087801;28;20272;-68
2021/12/29 12:56:17;;;;;;;57.22;32.10;;;4.30;99.90;;;;;;5088063;28;20211;-70
2021/12/29 12:58:47;;;;;;;49.17;30.08;;;4.30;99.90;;;;;;5090171;28;20207;-69
2021/12/29 13:01:18;;;;;;;50.45;30.15;;;4.40;99.90;;;;;;5090179;28;20181;-69
2021/12/29 13:03:47;;;;;;;50.92;30.67;;;4.40;99.90;;;;;;5090078;28;20213;-68
2021/12/29 13:06:22;;;;;;;54.13;30.23;;;4.40;99.90;;;;;;5090400;28;20196;-68